sensor_id;sensor_type;location;lat;lon;timestamp;P1;durP1;ratioP1;P2;durP2;ratioP2
17422;SDS011;8829;47.932;7.810;2023-12-20T00:00:08;0.60;;;0.60;;
17422;SDS011;8829;47.932;7.810;2023-12-20T00:02:36;0.70;;;0.70;;
17422;SDS011;8829;47.932;7.810;2023-12-20T00:05:02;0.70;;;0.70;;
17422;SDS011;8829;47.932;7.810;2023-12-20T00:07:30;1.47;;;0.83;;
17422;SDS011;8829;47.932;7.810;2023-12-20T00:09:58;0.60;;;0.60;;
17422;SDS011;8829;47.932;7.810;2023-12-20T00:12:25;0.80;;;0.77;;
17422;SDS011;8829;47.932;7.810;2023-12-20T00:14:51;0.80;;;0.80;;
17422;SDS011;8829;47.932;7.810;2023-12-20T00:17:18;1.30;;;1.30;;
17422;SDS011;8829;47.932;7.810;2023-12-20T00:19:45;2.20;;;2.00;;
17422;SDS011;8829;47.932;7.810;2023-12-20T00:22:11;0.83;;;0.83;;
17422;SDS011;8829;47.932;7.810;2023-12-20T00:24:38;0.70;;;0.70;;
17422;SDS011;8829;47.932;7.810;2023-12-20T00:27:06;0.70;;;0.70;;
17422;SDS011;8829;47.932;7.810;2023-12-20T00:29:33;0.60;;;0.60;;
17422;SDS011;8829;47.932;7.810;2023-12-20T00:31:59;0.77;;;0.77;;
17422;SDS011;8829;47.932;7.810;2023-12-20T00:34:26;1.20;;;1.03;;
17422;SDS011;8829;47.932;7.810;2023-12-20T00:36:53;0.70;;;0.70;;
17422;SDS011;8829;47.932;7.810;2023-12-20T00:39:20;0.70;;;0.70;;
17422;SDS011;8829;47.932;7.810;2023-12-20T00:41:46;0.80;;;0.80;;
17422;SDS011;8829;47.932;7.810;2023-12-20T00:44:14;0.97;;;0.80;;
17422;SDS011;8829;47.932;7.810;2023-12-20T00:46:40;0.80;;;0.80;;
17422;SDS011;8829;47.932;7.810;2023-12-20T00:49:07;0.70;;;0.70;;
17422;SDS011;8829;47.932;7.810;2023-12-20T00:51:33;0.67;;;0.67;;
17422;SDS011;8829;47.932;7.810;2023-12-20T00:54:00;0.80;;;0.80;;
17422;SDS011;8829;47.932;7.810;2023-12-20T00:56:27;0.70;;;0.70;;
17422;SDS011;8829;47.932;7.810;2023-12-20T00:58:54;0.70;;;0.70;;
17422;SDS011;8829;47.932;7.810;2023-12-20T01:01:21;0.70;;;0.70;;
17422;SDS011;8829;47.932;7.810;2023-12-20T01:03:47;0.70;;;0.70;;
17422;SDS011;8829;47.932;7.810;2023-12-20T01:06:16;0.87;;;0.80;;
17422;SDS011;8829;47.932;7.810;2023-12-20T01:08:43;0.60;;;0.60;;
17422;SDS011;8829;47.932;7.810;2023-12-20T01:11:09;0.67;;;0.67;;
17422;SDS011;8829;47.932;7.810;2023-12-20T01:13:36;0.60;;;0.60;;
17422;SDS011;8829;47.932;7.810;2023-12-20T01:16:03;0.77;;;0.77;;
17422;SDS011;8829;47.932;7.810;2023-12-20T01:18:32;1.00;;;1.00;;
17422;SDS011;8829;47.932;7.810;2023-12-20T01:21:01;0.83;;;0.83;;
17422;SDS011;8829;47.932;7.810;2023-12-20T01:23:28;0.73;;;0.73;;
17422;SDS011;8829;47.932;7.810;2023-12-20T01:25:54;0.70;;;0.70;;
17422;SDS011;8829;47.932;7.810;2023-12-20T01:28:21;0.90;;;0.90;;
17422;SDS011;8829;47.932;7.810;2023-12-20T01:30:48;1.03;;;0.93;;
17422;SDS011;8829;47.932;7.810;2023-12-20T01:33:14;0.60;;;0.60;;
17422;SDS011;8829;47.932;7.810;2023-12-20T01:35:42;0.83;;;0.83;;
17422;SDS011;8829;47.932;7.810;2023-12-20T01:38:09;0.87;;;0.87;;
17422;SDS011;8829;47.932;7.810;2023-12-20T01:40:36;0.50;;;0.50;;
17422;SDS011;8829;47.932;7.810;2023-12-20T01:43:06;3.83;;;1.03;;
17422;SDS011;8829;47.932;7.810;2023-12-20T01:45:33;0.50;;;0.50;;
17422;SDS011;8829;47.932;7.810;2023-12-20T01:48:00;0.60;;;0.60;;
17422;SDS011;8829;47.932;7.810;2023-12-20T01:50:28;0.60;;;0.60;;
17422;SDS011;8829;47.932;7.810;2023-12-20T01:52:58;0.70;;;0.70;;
17422;SDS011;8829;47.932;7.810;2023-12-20T01:55:27;0.60;;;0.60;;
17422;SDS011;8829;47.932;7.810;2023-12-20T01:57:56;0.60;;;0.60;;
17422;SDS011;8829;47.932;7.810;2023-12-20T02:00:24;0.50;;;0.50;;
17422;SDS011;8829;47.932;7.810;2023-12-20T02:02:52;0.50;;;0.50;;
17422;SDS011;8829;47.932;7.810;2023-12-20T02:05:20;0.50;;;0.50;;
17422;SDS011;8829;47.932;7.810;2023-12-20T02:07:47;0.60;;;0.60;;
17422;SDS011;8829;47.932;7.810;2023-12-20T02:10:15;0.60;;;0.60;;
17422;SDS011;8829;47.932;7.810;2023-12-20T02:12:42;0.63;;;0.63;;
17422;SDS011;8829;47.932;7.810;2023-12-20T02:15:10;0.60;;;0.60;;
17422;SDS011;8829;47.932;7.810;2023-12-20T02:17:37;0.50;;;0.50;;
17422;SDS011;8829;47.932;7.810;2023-12-20T02:20:07;0.50;;;0.50;;
17422;SDS011;8829;47.932;7.810;2023-12-20T02:22:35;0.50;;;0.50;;
17422;SDS011;8829;47.932;7.810;2023-12-20T02:25:02;0.60;;;0.60;;
17422;SDS011;8829;47.932;7.810;2023-12-20T02:27:29;0.60;;;0.60;;
17422;SDS011;8829;47.932;7.810;2023-12-20T02:29:56;0.43;;;0.43;;
17422;SDS011;8829;47.932;7.810;2023-12-20T02:32:23;0.73;;;0.73;;
17422;SDS011;8829;47.932;7.810;2023-12-20T02:34:52;0.60;;;0.60;;
17422;SDS011;8829;47.932;7.810;2023-12-20T02:37:18;0.57;;;0.57;;
17422;SDS011;8829;47.932;7.810;2023-12-20T02:39:46;0.67;;;0.67;;
17422;SDS011;8829;47.932;7.810;2023-12-20T02:42:13;0.60;;;0.60;;
17422;SDS011;8829;47.932;7.810;2023-12-20T02:44:40;0.60;;;0.60;;
17422;SDS011;8829;47.932;7.810;2023-12-20T02:47:07;0.70;;;0.70;;
17422;SDS011;8829;47.932;7.810;2023-12-20T02:49:33;0.57;;;0.57;;
17422;SDS011;8829;47.932;7.810;2023-12-20T02:52:00;0.70;;;0.70;;
17422;SDS011;8829;47.932;7.810;2023-12-20T02:54:27;0.60;;;0.60;;
17422;SDS011;8829;47.932;7.810;2023-12-20T02:56:55;0.70;;;0.70;;
17422;SDS011;8829;47.932;7.810;2023-12-20T02:59:21;0.80;;;0.80;;
17422;SDS011;8829;47.932;7.810;2023-12-20T03:01:48;0.60;;;0.60;;
17422;SDS011;8829;47.932;7.810;2023-12-20T03:04:15;0.60;;;0.60;;
17422;SDS011;8829;47.932;7.810;2023-12-20T03:06:41;0.60;;;0.60;;
17422;SDS011;8829;47.932;7.810;2023-12-20T03:09:08;0.73;;;0.73;;
17422;SDS011;8829;47.932;7.810;2023-12-20T03:11:35;0.63;;;0.63;;
17422;SDS011;8829;47.932;7.810;2023-12-20T03:14:03;0.70;;;0.70;;
17422;SDS011;8829;47.932;7.810;2023-12-20T03:16:29;0.60;;;0.60;;
17422;SDS011;8829;47.932;7.810;2023-12-20T03:18:58;0.60;;;0.60;;
17422;SDS011;8829;47.932;7.810;2023-12-20T03:21:24;0.60;;;0.60;;
17422;SDS011;8829;47.932;7.810;2023-12-20T03:23:51;0.70;;;0.70;;
17422;SDS011;8829;47.932;7.810;2023-12-20T03:26:18;0.73;;;0.73;;
17422;SDS011;8829;47.932;7.810;2023-12-20T03:28:44;0.40;;;0.40;;
17422;SDS011;8829;47.932;7.810;2023-12-20T03:31:13;0.70;;;0.60;;
17422;SDS011;8829;47.932;7.810;2023-12-20T03:33:39;0.70;;;0.70;;
17422;SDS011;8829;47.932;7.810;2023-12-20T03:36:06;1.60;;;0.70;;
17422;SDS011;8829;47.932;7.810;2023-12-20T03:38:33;0.60;;;0.60;;
17422;SDS011;8829;47.932;7.810;2023-12-20T03:41:00;0.67;;;0.67;;
17422;SDS011;8829;47.932;7.810;2023-12-20T03:43:26;0.60;;;0.60;;
17422;SDS011;8829;47.932;7.810;2023-12-20T03:45:53;0.67;;;0.67;;
17422;SDS011;8829;47.932;7.810;2023-12-20T03:48:21;0.70;;;0.70;;
17422;SDS011;8829;47.932;7.810;2023-12-20T03:50:48;0.57;;;0.57;;
17422;SDS011;8829;47.932;7.810;2023-12-20T03:53:14;0.60;;;0.60;;
17422;SDS011;8829;47.932;7.810;2023-12-20T03:55:41;0.80;;;0.80;;
17422;SDS011;8829;47.932;7.810;2023-12-20T03:58:08;0.70;;;0.70;;
17422;SDS011;8829;47.932;7.810;2023-12-20T04:00:34;0.70;;;0.70;;
17422;SDS011;8829;47.932;7.810;2023-12-20T04:03:01;0.60;;;0.60;;
17422;SDS011;8829;47.932;7.810;2023-12-20T04:05:29;0.60;;;0.60;;
17422;SDS011;8829;47.932;7.810;2023-12-20T04:07:56;0.60;;;0.60;;
17422;SDS011;8829;47.932;7.810;2023-12-20T04:10:22;0.60;;;0.60;;
17422;SDS011;8829;47.932;7.810;2023-12-20T04:12:49;0.50;;;0.50;;
17422;SDS011;8829;47.932;7.810;2023-12-20T04:15:16;0.50;;;0.50;;
17422;SDS011;8829;47.932;7.810;2023-12-20T04:17:43;0.60;;;0.60;;
17422;SDS011;8829;47.932;7.810;2023-12-20T04:20:09;0.50;;;0.50;;
17422;SDS011;8829;47.932;7.810;2023-12-20T04:22:38;0.60;;;0.60;;
17422;SDS011;8829;47.932;7.810;2023-12-20T04:25:05;0.50;;;0.50;;
17422;SDS011;8829;47.932;7.810;2023-12-20T04:27:32;0.50;;;0.50;;
17422;SDS011;8829;47.932;7.810;2023-12-20T04:29:58;0.50;;;0.50;;
17422;SDS011;8829;47.932;7.810;2023-12-20T04:32:25;0.60;;;0.60;;
17422;SDS011;8829;47.932;7.810;2023-12-20T04:34:52;0.60;;;0.60;;
17422;SDS011;8829;47.932;7.810;2023-12-20T04:37:19;0.60;;;0.60;;
17422;SDS011;8829;47.932;7.810;2023-12-20T04:39:47;0.60;;;0.60;;
17422;SDS011;8829;47.932;7.810;2023-12-20T04:42:13;0.50;;;0.50;;
17422;SDS011;8829;47.932;7.810;2023-12-20T04:44:40;0.50;;;0.50;;
17422;SDS011;8829;47.932;7.810;2023-12-20T04:47:08;0.70;;;0.70;;
17422;SDS011;8829;47.932;7.810;2023-12-20T04:49:35;0.60;;;0.60;;
17422;SDS011;8829;47.932;7.810;2023-12-20T04:52:02;0.50;;;0.50;;
17422;SDS011;8829;47.932;7.810;2023-12-20T04:54:29;0.50;;;0.50;;
17422;SDS011;8829;47.932;7.810;2023-12-20T04:56:57;0.57;;;0.57;;
17422;SDS011;8829;47.932;7.810;2023-12-20T04:59:23;0.70;;;0.70;;
17422;SDS011;8829;47.932;7.810;2023-12-20T05:01:50;0.97;;;0.97;;
17422;SDS011;8829;47.932;7.810;2023-12-20T05:04:17;0.47;;;0.47;;
17422;SDS011;8829;47.932;7.810;2023-12-20T05:06:43;0.50;;;0.50;;
17422;SDS011;8829;47.932;7.810;2023-12-20T05:09:10;0.60;;;0.60;;
17422;SDS011;8829;47.932;7.810;2023-12-20T05:11:37;0.50;;;0.50;;
17422;SDS011;8829;47.932;7.810;2023-12-20T05:14:05;0.60;;;0.60;;
17422;SDS011;8829;47.932;7.810;2023-12-20T05:16:32;0.50;;;0.50;;
17422;SDS011;8829;47.932;7.810;2023-12-20T05:18:59;0.80;;;0.80;;
17422;SDS011;8829;47.932;7.810;2023-12-20T05:21:31;0.70;;;0.70;;
17422;SDS011;8829;47.932;7.810;2023-12-20T05:23:58;0.40;;;0.40;;
17422;SDS011;8829;47.932;7.810;2023-12-20T05:26:25;0.50;;;0.50;;
17422;SDS011;8829;47.932;7.810;2023-12-20T05:28:51;0.60;;;0.60;;
17422;SDS011;8829;47.932;7.810;2023-12-20T05:31:21;1.20;;;1.20;;
17422;SDS011;8829;47.932;7.810;2023-12-20T05:33:47;0.50;;;0.50;;
17422;SDS011;8829;47.932;7.810;2023-12-20T05:36:15;0.60;;;0.60;;
17422;SDS011;8829;47.932;7.810;2023-12-20T05:38:41;0.50;;;0.50;;
17422;SDS011;8829;47.932;7.810;2023-12-20T05:41:08;0.73;;;0.73;;
17422;SDS011;8829;47.932;7.810;2023-12-20T05:43:35;0.70;;;0.70;;
17422;SDS011;8829;47.932;7.810;2023-12-20T05:46:02;0.60;;;0.60;;
17422;SDS011;8829;47.932;7.810;2023-12-20T05:48:30;0.70;;;0.70;;
17422;SDS011;8829;47.932;7.810;2023-12-20T05:50:57;0.70;;;0.70;;
17422;SDS011;8829;47.932;7.810;2023-12-20T05:53:24;0.93;;;0.57;;
17422;SDS011;8829;47.932;7.810;2023-12-20T05:55:51;0.50;;;0.50;;
17422;SDS011;8829;47.932;7.810;2023-12-20T05:58:17;0.50;;;0.50;;
17422;SDS011;8829;47.932;7.810;2023-12-20T06:00:44;0.50;;;0.50;;
17422;SDS011;8829;47.932;7.810;2023-12-20T06:03:11;0.50;;;0.50;;
17422;SDS011;8829;47.932;7.810;2023-12-20T06:05:39;0.63;;;0.63;;
17422;SDS011;8829;47.932;7.810;2023-12-20T06:08:06;0.67;;;0.67;;
17422;SDS011;8829;47.932;7.810;2023-12-20T06:10:34;1.00;;;1.00;;
17422;SDS011;8829;47.932;7.810;2023-12-20T06:13:00;1.07;;;1.07;;
17422;SDS011;8829;47.932;7.810;2023-12-20T06:15:29;0.80;;;0.80;;
17422;SDS011;8829;47.932;7.810;2023-12-20T06:17:56;0.60;;;0.60;;
17422;SDS011;8829;47.932;7.810;2023-12-20T06:20:22;0.50;;;0.50;;
17422;SDS011;8829;47.932;7.810;2023-12-20T06:22:51;0.60;;;0.60;;
17422;SDS011;8829;47.932;7.810;2023-12-20T06:25:17;0.50;;;0.50;;
17422;SDS011;8829;47.932;7.810;2023-12-20T06:27:44;0.60;;;0.60;;
17422;SDS011;8829;47.932;7.810;2023-12-20T06:30:11;0.47;;;0.47;;
17422;SDS011;8829;47.932;7.810;2023-12-20T06:32:38;1.73;;;1.63;;
17422;SDS011;8829;47.932;7.810;2023-12-20T06:35:05;1.07;;;1.07;;
17422;SDS011;8829;47.932;7.810;2023-12-20T06:37:32;0.80;;;0.80;;
17422;SDS011;8829;47.932;7.810;2023-12-20T06:40:00;0.60;;;0.60;;
17422;SDS011;8829;47.932;7.810;2023-12-20T06:42:27;0.70;;;0.70;;
17422;SDS011;8829;47.932;7.810;2023-12-20T06:44:54;0.60;;;0.60;;
17422;SDS011;8829;47.932;7.810;2023-12-20T06:47:20;0.70;;;0.70;;
17422;SDS011;8829;47.932;7.810;2023-12-20T06:49:47;0.50;;;0.50;;
17422;SDS011;8829;47.932;7.810;2023-12-20T06:52:14;0.70;;;0.70;;
17422;SDS011;8829;47.932;7.810;2023-12-20T06:54:41;0.70;;;0.70;;
17422;SDS011;8829;47.932;7.810;2023-12-20T06:57:09;0.63;;;0.63;;
17422;SDS011;8829;47.932;7.810;2023-12-20T06:59:38;1.40;;;1.03;;
17422;SDS011;8829;47.932;7.810;2023-12-20T07:02:05;1.30;;;1.30;;
17422;SDS011;8829;47.932;7.810;2023-12-20T07:04:32;0.50;;;0.50;;
17422;SDS011;8829;47.932;7.810;2023-12-20T07:06:59;2.50;;;2.40;;
17422;SDS011;8829;47.932;7.810;2023-12-20T07:09:26;0.87;;;0.80;;
17422;SDS011;8829;47.932;7.810;2023-12-20T07:11:52;0.70;;;0.60;;
17422;SDS011;8829;47.932;7.810;2023-12-20T07:14:20;0.60;;;0.60;;
17422;SDS011;8829;47.932;7.810;2023-12-20T07:16:47;0.50;;;0.50;;
17422;SDS011;8829;47.932;7.810;2023-12-20T07:19:14;0.50;;;0.50;;
17422;SDS011;8829;47.932;7.810;2023-12-20T07:21:41;0.67;;;0.63;;
17422;SDS011;8829;47.932;7.810;2023-12-20T07:24:07;0.47;;;0.47;;
17422;SDS011;8829;47.932;7.810;2023-12-20T07:26:34;0.80;;;0.80;;
17422;SDS011;8829;47.932;7.810;2023-12-20T07:29:02;0.60;;;0.60;;
17422;SDS011;8829;47.932;7.810;2023-12-20T07:31:30;0.73;;;0.60;;
17422;SDS011;8829;47.932;7.810;2023-12-20T07:33:57;0.87;;;0.87;;
17422;SDS011;8829;47.932;7.810;2023-12-20T07:36:24;0.93;;;0.60;;
17422;SDS011;8829;47.932;7.810;2023-12-20T07:38:51;0.73;;;0.60;;
17422;SDS011;8829;47.932;7.810;2023-12-20T07:41:17;0.70;;;0.70;;
17422;SDS011;8829;47.932;7.810;2023-12-20T07:43:46;0.90;;;0.90;;
17422;SDS011;8829;47.932;7.810;2023-12-20T07:46:12;0.63;;;0.63;;
17422;SDS011;8829;47.932;7.810;2023-12-20T07:48:40;1.03;;;1.03;;
17422;SDS011;8829;47.932;7.810;2023-12-20T07:51:07;0.80;;;0.80;;
17422;SDS011;8829;47.932;7.810;2023-12-20T07:53:35;0.80;;;0.80;;
17422;SDS011;8829;47.932;7.810;2023-12-20T07:56:02;0.97;;;0.90;;
17422;SDS011;8829;47.932;7.810;2023-12-20T07:58:39;0.70;;;0.70;;
17422;SDS011;8829;47.932;7.810;2023-12-20T08:01:05;2.30;;;0.83;;
17422;SDS011;8829;47.932;7.810;2023-12-20T08:03:32;0.50;;;0.50;;
17422;SDS011;8829;47.932;7.810;2023-12-20T08:06:00;0.70;;;0.70;;
17422;SDS011;8829;47.932;7.810;2023-12-20T08:08:28;0.50;;;0.50;;
17422;SDS011;8829;47.932;7.810;2023-12-20T08:10:55;0.60;;;0.60;;
17422;SDS011;8829;47.932;7.810;2023-12-20T08:13:24;0.60;;;0.60;;
17422;SDS011;8829;47.932;7.810;2023-12-20T08:15:51;0.77;;;0.77;;
17422;SDS011;8829;47.932;7.810;2023-12-20T08:18:17;0.60;;;0.60;;
17422;SDS011;8829;47.932;7.810;2023-12-20T08:20:44;1.10;;;0.73;;
17422;SDS011;8829;47.932;7.810;2023-12-20T08:23:13;0.50;;;0.50;;
17422;SDS011;8829;47.932;7.810;2023-12-20T08:25:41;0.60;;;0.60;;
17422;SDS011;8829;47.932;7.810;2023-12-20T08:28:08;0.50;;;0.50;;
17422;SDS011;8829;47.932;7.810;2023-12-20T08:30:35;0.90;;;0.90;;
17422;SDS011;8829;47.932;7.810;2023-12-20T08:33:02;3.80;;;0.93;;
17422;SDS011;8829;47.932;7.810;2023-12-20T08:35:29;1.07;;;1.07;;
17422;SDS011;8829;47.932;7.810;2023-12-20T08:37:56;3.73;;;3.33;;
17422;SDS011;8829;47.932;7.810;2023-12-20T08:40:24;2.03;;;1.90;;
17422;SDS011;8829;47.932;7.810;2023-12-20T08:42:51;1.00;;;1.00;;
17422;SDS011;8829;47.932;7.810;2023-12-20T08:45:17;0.70;;;0.70;;
17422;SDS011;8829;47.932;7.810;2023-12-20T08:47:44;0.90;;;0.90;;
17422;SDS011;8829;47.932;7.810;2023-12-20T08:50:11;0.90;;;0.90;;
17422;SDS011;8829;47.932;7.810;2023-12-20T08:52:40;0.97;;;0.97;;
17422;SDS011;8829;47.932;7.810;2023-12-20T08:55:07;0.80;;;0.80;;
17422;SDS011;8829;47.932;7.810;2023-12-20T08:57:37;0.90;;;0.90;;
17422;SDS011;8829;47.932;7.810;2023-12-20T09:00:04;0.80;;;0.80;;
17422;SDS011;8829;47.932;7.810;2023-12-20T09:02:32;1.00;;;1.00;;
17422;SDS011;8829;47.932;7.810;2023-12-20T09:05:01;0.80;;;0.80;;
17422;SDS011;8829;47.932;7.810;2023-12-20T09:07:28;0.93;;;0.93;;
17422;SDS011;8829;47.932;7.810;2023-12-20T09:09:56;1.50;;;1.40;;
17422;SDS011;8829;47.932;7.810;2023-12-20T09:12:22;1.60;;;1.50;;
17422;SDS011;8829;47.932;7.810;2023-12-20T09:14:51;2.00;;;1.37;;
17422;SDS011;8829;47.932;7.810;2023-12-20T09:17:18;1.20;;;1.20;;
17422;SDS011;8829;47.932;7.810;2023-12-20T09:19:45;1.13;;;1.13;;
17422;SDS011;8829;47.932;7.810;2023-12-20T09:22:12;1.43;;;1.37;;
17422;SDS011;8829;47.932;7.810;2023-12-20T09:24:39;1.87;;;1.77;;
17422;SDS011;8829;47.932;7.810;2023-12-20T09:27:05;1.47;;;1.47;;
17422;SDS011;8829;47.932;7.810;2023-12-20T09:29:32;1.10;;;1.10;;
17422;SDS011;8829;47.932;7.810;2023-12-20T09:32:00;1.30;;;1.20;;
17422;SDS011;8829;47.932;7.810;2023-12-20T09:34:27;1.40;;;1.30;;
17422;SDS011;8829;47.932;7.810;2023-12-20T09:36:54;1.10;;;1.10;;
17422;SDS011;8829;47.932;7.810;2023-12-20T09:39:21;1.53;;;1.40;;
17422;SDS011;8829;47.932;7.810;2023-12-20T09:41:49;1.17;;;1.17;;
17422;SDS011;8829;47.932;7.810;2023-12-20T09:44:25;1.07;;;1.07;;
17422;SDS011;8829;47.932;7.810;2023-12-20T09:46:52;1.20;;;1.20;;
17422;SDS011;8829;47.932;7.810;2023-12-20T09:49:22;1.13;;;1.13;;
17422;SDS011;8829;47.932;7.810;2023-12-20T09:51:50;1.20;;;1.20;;
17422;SDS011;8829;47.932;7.810;2023-12-20T09:54:17;1.43;;;1.33;;
17422;SDS011;8829;47.932;7.810;2023-12-20T09:56:44;2.10;;;1.90;;
17422;SDS011;8829;47.932;7.810;2023-12-20T09:59:11;2.23;;;1.70;;
17422;SDS011;8829;47.932;7.810;2023-12-20T10:01:39;1.50;;;1.40;;
17422;SDS011;8829;47.932;7.810;2023-12-20T10:04:07;2.90;;;1.83;;
17422;SDS011;8829;47.932;7.810;2023-12-20T10:06:35;2.20;;;2.10;;
17422;SDS011;8829;47.932;7.810;2023-12-20T10:09:02;1.73;;;1.60;;
17422;SDS011;8829;47.932;7.810;2023-12-20T10:11:30;3.03;;;1.60;;
17422;SDS011;8829;47.932;7.810;2023-12-20T10:13:58;3.33;;;1.73;;
17422;SDS011;8829;47.932;7.810;2023-12-20T10:16:25;1.77;;;1.60;;
17422;SDS011;8829;47.932;7.810;2023-12-20T10:18:52;3.57;;;1.60;;
17422;SDS011;8829;47.932;7.810;2023-12-20T10:21:19;1.37;;;1.27;;
17422;SDS011;8829;47.932;7.810;2023-12-20T10:23:47;1.73;;;1.50;;
17422;SDS011;8829;47.932;7.810;2023-12-20T10:26:18;1.67;;;1.50;;
17422;SDS011;8829;47.932;7.810;2023-12-20T10:28:46;1.70;;;1.60;;
17422;SDS011;8829;47.932;7.810;2023-12-20T10:31:25;3.87;;;1.53;;
17422;SDS011;8829;47.932;7.810;2023-12-20T10:33:53;1.67;;;1.57;;
17422;SDS011;8829;47.932;7.810;2023-12-20T10:36:20;2.10;;;1.23;;
17422;SDS011;8829;47.932;7.810;2023-12-20T10:38:48;3.73;;;1.40;;
17422;SDS011;8829;47.932;7.810;2023-12-20T10:41:18;1.37;;;1.27;;
17422;SDS011;8829;47.932;7.810;2023-12-20T10:43:47;3.10;;;1.40;;
17422;SDS011;8829;47.932;7.810;2023-12-20T10:46:14;1.40;;;1.30;;
17422;SDS011;8829;47.932;7.810;2023-12-20T10:48:42;2.30;;;1.50;;
17422;SDS011;8829;47.932;7.810;2023-12-20T10:51:10;1.73;;;1.33;;
17422;SDS011;8829;47.932;7.810;2023-12-20T10:53:37;2.83;;;1.23;;
17422;SDS011;8829;47.932;7.810;2023-12-20T10:56:07;4.17;;;1.60;;
17422;SDS011;8829;47.932;7.810;2023-12-20T10:58:36;1.20;;;1.07;;
17422;SDS011;8829;47.932;7.810;2023-12-20T11:01:08;1.70;;;1.37;;
17422;SDS011;8829;47.932;7.810;2023-12-20T11:03:35;1.90;;;1.40;;
17422;SDS011;8829;47.932;7.810;2023-12-20T11:06:04;2.17;;;1.63;;
17422;SDS011;8829;47.932;7.810;2023-12-20T11:08:38;1.53;;;1.43;;
17422;SDS011;8829;47.932;7.810;2023-12-20T11:11:13;2.57;;;1.50;;
17422;SDS011;8829;47.932;7.810;2023-12-20T11:13:48;2.83;;;1.50;;
17422;SDS011;8829;47.932;7.810;2023-12-20T11:16:21;1.20;;;1.17;;
17422;SDS011;8829;47.932;7.810;2023-12-20T11:18:49;3.47;;;2.20;;
17422;SDS011;8829;47.932;7.810;2023-12-20T11:21:17;1.30;;;1.30;;
17422;SDS011;8829;47.932;7.810;2023-12-20T11:23:44;1.43;;;1.33;;
17422;SDS011;8829;47.932;7.810;2023-12-20T11:26:13;1.70;;;1.57;;
17422;SDS011;8829;47.932;7.810;2023-12-20T11:28:42;1.67;;;1.40;;
17422;SDS011;8829;47.932;7.810;2023-12-20T11:31:08;1.53;;;1.43;;
17422;SDS011;8829;47.932;7.810;2023-12-20T11:33:43;2.90;;;1.40;;
17422;SDS011;8829;47.932;7.810;2023-12-20T11:36:13;1.57;;;1.47;;
17422;SDS011;8829;47.932;7.810;2023-12-20T11:38:49;2.33;;;1.63;;
17422;SDS011;8829;47.932;7.810;2023-12-20T11:41:23;1.83;;;1.60;;
17422;SDS011;8829;47.932;7.810;2023-12-20T11:43:51;1.67;;;1.57;;
17422;SDS011;8829;47.932;7.810;2023-12-20T11:46:20;2.77;;;2.30;;
17422;SDS011;8829;47.932;7.810;2023-12-20T11:48:47;2.07;;;1.80;;
17422;SDS011;8829;47.932;7.810;2023-12-20T11:51:14;2.50;;;1.63;;
17422;SDS011;8829;47.932;7.810;2023-12-20T11:53:41;1.40;;;1.40;;
17422;SDS011;8829;47.932;7.810;2023-12-20T11:56:08;2.27;;;1.83;;
17422;SDS011;8829;47.932;7.810;2023-12-20T11:58:37;1.53;;;1.33;;
17422;SDS011;8829;47.932;7.810;2023-12-20T12:01:04;3.77;;;1.83;;
17422;SDS011;8829;47.932;7.810;2023-12-20T12:03:32;1.30;;;1.30;;
17422;SDS011;8829;47.932;7.810;2023-12-20T12:05:59;2.80;;;1.90;;
17422;SDS011;8829;47.932;7.810;2023-12-20T12:08:27;2.30;;;1.27;;
17422;SDS011;8829;47.932;7.810;2023-12-20T12:10:54;2.20;;;1.43;;
17422;SDS011;8829;47.932;7.810;2023-12-20T12:13:20;1.70;;;1.20;;
17422;SDS011;8829;47.932;7.810;2023-12-20T12:15:53;2.10;;;1.53;;
17422;SDS011;8829;47.932;7.810;2023-12-20T12:18:20;3.57;;;1.43;;
17422;SDS011;8829;47.932;7.810;2023-12-20T12:20:47;3.20;;;1.73;;
17422;SDS011;8829;47.932;7.810;2023-12-20T12:23:14;3.37;;;1.97;;
17422;SDS011;8829;47.932;7.810;2023-12-20T12:25:48;3.27;;;1.20;;
17422;SDS011;8829;47.932;7.810;2023-12-20T12:28:15;4.90;;;1.90;;
17422;SDS011;8829;47.932;7.810;2023-12-20T12:30:42;3.20;;;1.40;;
17422;SDS011;8829;47.932;7.810;2023-12-20T12:33:11;3.93;;;1.77;;
17422;SDS011;8829;47.932;7.810;2023-12-20T12:35:38;3.17;;;1.17;;
17422;SDS011;8829;47.932;7.810;2023-12-20T12:38:07;1.50;;;1.30;;
17422;SDS011;8829;47.932;7.810;2023-12-20T12:40:34;2.17;;;1.30;;
17422;SDS011;8829;47.932;7.810;2023-12-20T12:43:02;1.30;;;1.20;;
17422;SDS011;8829;47.932;7.810;2023-12-20T12:45:29;2.33;;;1.20;;
17422;SDS011;8829;47.932;7.810;2023-12-20T12:47:56;3.83;;;1.87;;
17422;SDS011;8829;47.932;7.810;2023-12-20T12:50:24;3.90;;;1.13;;
17422;SDS011;8829;47.932;7.810;2023-12-20T12:52:52;1.70;;;1.30;;
17422;SDS011;8829;47.932;7.810;2023-12-20T12:55:19;1.73;;;1.40;;
17422;SDS011;8829;47.932;7.810;2023-12-20T12:57:46;2.13;;;1.43;;
17422;SDS011;8829;47.932;7.810;2023-12-20T13:00:13;1.03;;;0.93;;
17422;SDS011;8829;47.932;7.810;2023-12-20T13:02:40;2.73;;;1.00;;
17422;SDS011;8829;47.932;7.810;2023-12-20T13:05:07;2.37;;;1.03;;
17422;SDS011;8829;47.932;7.810;2023-12-20T13:07:35;5.17;;;1.40;;
17422;SDS011;8829;47.932;7.810;2023-12-20T13:10:04;2.03;;;1.10;;
17422;SDS011;8829;47.932;7.810;2023-12-20T13:12:31;2.17;;;1.40;;
17422;SDS011;8829;47.932;7.810;2023-12-20T13:14:58;24.20;;;3.47;;
17422;SDS011;8829;47.932;7.810;2023-12-20T13:17:25;9.93;;;1.40;;
17422;SDS011;8829;47.932;7.810;2023-12-20T13:19:51;4.43;;;1.23;;
17422;SDS011;8829;47.932;7.810;2023-12-20T13:22:18;5.77;;;1.50;;
17422;SDS011;8829;47.932;7.810;2023-12-20T13:24:46;2.80;;;1.10;;
17422;SDS011;8829;47.932;7.810;2023-12-20T13:27:13;2.60;;;1.00;;
17422;SDS011;8829;47.932;7.810;2023-12-20T13:29:40;4.20;;;1.20;;
17422;SDS011;8829;47.932;7.810;2023-12-20T13:32:06;2.13;;;1.00;;
17422;SDS011;8829;47.932;7.810;2023-12-20T13:34:33;1.47;;;1.00;;
17422;SDS011;8829;47.932;7.810;2023-12-20T13:37:00;3.83;;;1.27;;
17422;SDS011;8829;47.932;7.810;2023-12-20T13:39:27;2.50;;;1.57;;
17422;SDS011;8829;47.932;7.810;2023-12-20T13:41:55;2.97;;;1.20;;
17422;SDS011;8829;47.932;7.810;2023-12-20T13:44:22;2.07;;;1.53;;
17422;SDS011;8829;47.932;7.810;2023-12-20T13:46:49;1.30;;;1.00;;
17422;SDS011;8829;47.932;7.810;2023-12-20T13:49:16;1.60;;;1.27;;
17422;SDS011;8829;47.932;7.810;2023-12-20T13:51:42;1.83;;;0.90;;
17422;SDS011;8829;47.932;7.810;2023-12-20T13:54:10;4.77;;;1.67;;
17422;SDS011;8829;47.932;7.810;2023-12-20T13:56:36;2.13;;;1.10;;
17422;SDS011;8829;47.932;7.810;2023-12-20T13:59:04;2.37;;;1.40;;
17422;SDS011;8829;47.932;7.810;2023-12-20T14:01:31;1.97;;;1.53;;
17422;SDS011;8829;47.932;7.810;2023-12-20T14:03:58;2.20;;;1.27;;
17422;SDS011;8829;47.932;7.810;2023-12-20T14:06:26;1.27;;;1.27;;
17422;SDS011;8829;47.932;7.810;2023-12-20T14:08:52;3.50;;;1.30;;
17422;SDS011;8829;47.932;7.810;2023-12-20T14:11:19;1.13;;;1.13;;
17422;SDS011;8829;47.932;7.810;2023-12-20T14:13:46;1.80;;;1.40;;
17422;SDS011;8829;47.932;7.810;2023-12-20T14:16:14;1.70;;;1.37;;
17422;SDS011;8829;47.932;7.810;2023-12-20T14:18:41;1.57;;;1.47;;
17422;SDS011;8829;47.932;7.810;2023-12-20T14:21:08;3.83;;;1.70;;
17422;SDS011;8829;47.932;7.810;2023-12-20T14:23:35;1.77;;;1.57;;
17422;SDS011;8829;47.932;7.810;2023-12-20T14:26:02;2.30;;;1.57;;
17422;SDS011;8829;47.932;7.810;2023-12-20T14:28:29;1.63;;;1.53;;
17422;SDS011;8829;47.932;7.810;2023-12-20T14:30:55;2.17;;;1.60;;
17422;SDS011;8829;47.932;7.810;2023-12-20T14:33:23;1.50;;;1.13;;
17422;SDS011;8829;47.932;7.810;2023-12-20T14:35:51;1.47;;;1.30;;
17422;SDS011;8829;47.932;7.810;2023-12-20T14:38:17;4.37;;;1.93;;
17422;SDS011;8829;47.932;7.810;2023-12-20T14:40:44;2.63;;;1.40;;
17422;SDS011;8829;47.932;7.810;2023-12-20T14:43:11;3.57;;;1.43;;
17422;SDS011;8829;47.932;7.810;2023-12-20T14:45:37;7.03;;;1.90;;
17422;SDS011;8829;47.932;7.810;2023-12-20T14:48:04;1.50;;;1.33;;
17422;SDS011;8829;47.932;7.810;2023-12-20T14:50:33;1.50;;;1.40;;
17422;SDS011;8829;47.932;7.810;2023-12-20T14:53:01;1.30;;;1.20;;
17422;SDS011;8829;47.932;7.810;2023-12-20T14:55:28;2.73;;;2.03;;
17422;SDS011;8829;47.932;7.810;2023-12-20T14:57:55;5.77;;;1.40;;
17422;SDS011;8829;47.932;7.810;2023-12-20T15:00:21;2.83;;;1.20;;